Bookmark and Share
Track history (hours):
 

Frej

Last reported at 2014-Apr-19 22:00 UTC. Time now 2014-Apr-20 03:11 UTC.
Position N 65°36' E 022°12'.

Length 108 m; draft 7 m.

Type: Other ship. MMSI: 265068000.

Wind from 300 at 16 knots

Barometer 1018.0 mb
Air temperature 8.1 ° C
Water temperature 1.3 ° C

NotesDate/timePositionNaut miles runAvg speedWind from/ knotsBaromVisibWave heightAir tempDewpointWater temp
2014-Apr-19 22:00N 65°36' E 022°12'0 0.0 300 / 161018.0 8.1 1.3
2014-Apr-19 21:00N 65°36' E 022°12'0 0.0 270 / 141016.6 8.9 1.3
2014-Apr-19 20:00N 65°36' E 022°12'0 0.0 250 / 61015.8 9.8 1.3
2014-Apr-19 19:00N 65°36' E 022°12'0 0.0 260 / 161015.2 10.6 1.3
2014-Apr-19 18:00N 65°36' E 022°12'0 0.0 250 / 101014.5 11.8 1.3
2014-Apr-19 17:00N 65°36' E 022°12'0 0.0 270 / 161013.9 12.5 1.3
2014-Apr-19 16:00N 65°36' E 022°12'0 0.0 270 / 211013.9 12.7 1.2
2014-Apr-19 15:00N 65°36' E 022°12'0 0.0 270 / 171014.4 13.0 1.3
2014-Apr-19 13:00N 65°36' E 022°12'0 0.0 260 / 171013.5 13.5 1.3
2014-Apr-19 12:00N 65°36' E 022°12'0 0.0 250 / 161013.7 12.9 1.3
2014-Apr-19 08:00N 65°36' E 022°12'0 0.0 200 / 161013.3 4.1 1.2
2014-Apr-19 07:00N 65°36' E 022°12'0 0.0 200 / 121013.7 3.8 1.2
2014-Apr-19 06:00N 65°36' E 022°12'0 0.0 190 / 121013.4 4.1 1.1
2014-Apr-19 05:00N 65°36' E 022°12'0 0.0 210 / 141013.2 4.4 1.2
2014-Apr-19 04:00N 65°36' E 022°12'0 0.0 210 / 121012.8 3.5 1.2
2014-Apr-19 03:00N 65°36' E 022°12'0 0.0 200 / 141013.0 3.2 1.2
2014-Apr-19 02:00N 65°36' E 022°12'0 0.0 210 / 141013.6 3.4 1.2
2014-Apr-19 01:00N 65°36' E 022°12'0 0.0 200 / 161013.6 4.2 1.2
2014-Apr-19 00:00N 65°36' E 022°12'0 0.0 230 / 101014.4 3.6 1.2
2014-Apr-18 23:00N 65°36' E 022°12'0 0.0 210 / 121014.5 3.4 1.2
2014-Apr-18 22:00N 65°36' E 022°12'0 0.0 200 / 141014.5 2.4 1.2
2014-Apr-18 20:00N 65°36' E 022°12'0 0.0 180 / 101015.5 1.9 1.3
2014-Apr-18 19:00N 65°36' E 022°12'0 0.0 180 / 81015.6 2.1 1.3
2014-Apr-18 18:00N 65°36' E 022°12'0 0.0 190 / 101015.4 3.3 1.2
2014-Apr-18 17:00N 65°36' E 022°12'10 9.6 220 / 101014.9 4.5 1.0
2014-Apr-18 16:00N 65°30' E 022°30'1414.1 220 / 141014.8 4.2 1.6
2014-Apr-18 15:00N 65°18' E 022°48'2311.7 210 / 161014.2 3.4 1.1
2014-Apr-18 13:00N 65°36' E 023°24'2 1.2 240 / 81012.3 3.7 0.4
2014-Apr-18 11:00N 65°36' E 023°30'6 6.5 340 / 61011.1 5.4 0.4
2014-Apr-18 10:00N 65°30' E 023°24'0 0.0 330 / 161010.1 3.1 0.3
2014-Apr-18 09:00N 65°30' E 023°24'0 0.0 340 / 101008.7 2.5 0.5
2014-Apr-18 07:00N 65°30' E 023°24'0 0.0 340 / 161005.9 1.1 0.6
2014-Apr-18 06:00N 65°30' E 023°24'0 0.0 340 / 121004.1 1.1 0.5
2014-Apr-18 05:00N 65°30' E 023°24'0 0.0 350 / 161002.5 1.2 0.6
2014-Apr-18 04:00N 65°30' E 023°24'0 0.0 280 / 161001.0 1.3 0.5
2014-Apr-17 14:00N 65°30' E 023°24'0 0.0 180 / 23999.6 3.0 0.5
2014-Apr-17 13:00N 65°30' E 023°24'6 6.0 190 / 231000.4 2.6 0.4
2014-Apr-17 12:00N 65°24' E 023°24'0 0.0 190 / 231001.2 3.7 0.5
2014-Apr-17 11:00N 65°24' E 023°24'0 0.0 200 / 271002.0 2.5 0.5
2014-Apr-17 10:00N 65°24' E 023°24'6 6.0 200 / 251002.5 1.6 0.3
2014-Apr-17 09:00N 65°30' E 023°24'1212.3 210 / 251002.6 1.4 0.4
2014-Apr-17 08:00N 65°42' E 023°30'6 6.0 210 / 191002.9 1.0 0.5
2014-Apr-17 07:00N 65°36' E 023°30'8 7.8 200 / 171003.6 2.1 0.3
2014-Apr-17 06:00N 65°30' E 023°18'1211.6 210 / 231004.7 1.2 0.3
2014-Apr-17 05:00N 65°24' E 023°42'7 7.5 200 / 271005.3 1.1 0.3
2014-Apr-17 04:00N 65°24' E 024°00'0 0.0 210 / 271006.2 1.2 0.2
2014-Apr-17 03:00N 65°24' E 024°00'5 2.5 220 / 231006.4 1.1 0.3
2014-Apr-17 01:00N 65°24' E 023°48'0 0.0 210 / 251007.0 1.0 0.6
2014-Apr-17 00:00N 65°24' E 023°48'0 0.0 210 / 191007.8 1.1 0.7
2014-Apr-16 23:00N 65°24' E 023°48'0 0.0 220 / 231008.5 1.2 0.8
2014-Apr-16 22:00N 65°24' E 023°48'2 1.2 220 / 251009.2 1.2 0.8
2014-Apr-16 20:00N 65°24' E 023°42'6 6.0 220 / 251011.3 1.3 0.6
2014-Apr-16 19:00N 65°18' E 023°42'21 7.0 220 / 231011.4 1.5 0.3
2014-Apr-16 16:00N 65°24' E 022°54'1211.6 210 / 191013.7 2.0 1.1
2014-Apr-16 15:00N 65°30' E 022°30'10 9.6 200 / 231013.2 2.9 1.2
2014-Apr-16 14:00N 65°36' E 022°12'0 0.0 190 / 161013.8 3.2 0.9
2014-Apr-16 13:00N 65°36' E 022°12'0 0.0 170 / 121015.3 2.2 1.2
2014-Apr-16 12:00N 65°36' E 022°12'0 0.0 190 / 191016.1 1.9 1.2
2014-Apr-16 10:00N 65°36' E 022°12'0 0.0 190 / 161017.6 1.7 1.2
2014-Apr-16 09:00N 65°36' E 022°12'0 0.0 190 / 161018.3 1.5 1.2
2014-Apr-16 08:00N 65°36' E 022°12'0 0.0 190 / 121018.7 1.5 1.2
2014-Apr-16 07:00N 65°36' E 022°12'0 0.0 170 / 61019.2 1.2 1.1
2014-Apr-16 06:00N 65°36' E 022°12'0 0.0 160 / 21019.8 2.6 1.1
2014-Apr-16 03:00N 65°36' E 022°12'0 0.0 300 / 21019.9 -2.6 1.2
2014-Apr-16 02:00N 65°36' E 022°12'0 0.0 330 / 61019.8 -1.2 1.2
2014-Apr-16 01:00N 65°36' E 022°12'0 0.0 320 / 61019.8 -1.0 1.2
2014-Apr-16 00:00N 65°36' E 022°12'0 0.0 310 / 101019.6 -0.2 1.1
2014-Apr-15 23:00N 65°36' E 022°12'0 0.0 320 / 61019.4 0.5 1.2
2014-Apr-15 22:00N 65°36' E 022°12'0 0.0 310 / 101019.1 0.8 1.1
2014-Apr-15 21:00N 65°36' E 022°12'0 0.0 320 / 101018.6 1.6 1.2
2014-Apr-15 19:00N 65°36' E 022°12'0 0.0 320 / 81017.3 3.2 1.2
2014-Apr-15 18:00N 65°36' E 022°12'0 0.0 320 / 101016.7 4.2 1.2
2014-Apr-15 17:00N 65°36' E 022°12'0 0.0 330 / 141015.9 4.8 1.2
2014-Apr-15 16:00N 65°36' E 022°12'0 0.0 320 / 161015.1 5.3 1.2
2014-Apr-15 15:00N 65°36' E 022°12'0 0.0 330 / 251014.7 5.4 1.2
2014-Apr-15 14:00N 65°36' E 022°12'0 0.0 330 / 191013.7 6.5 1.2
2014-Apr-15 13:00N 65°36' E 022°12'0 0.0 300 / 211013.0 5.3 1.1
2014-Apr-15 12:00N 65°36' E 022°12'0 0.0 310 / 161012.3 5.7 1.1
2014-Apr-15 11:00N 65°36' E 022°12'0 0.0 310 / 211011.6 5.8 1.1
2014-Apr-15 10:00N 65°36' E 022°12'0 0.0 320 / 171011.1 5.5 1.1
2014-Apr-15 09:00N 65°36' E 022°12'0 0.0 330 / 171010.6 4.0 1.1
2014-Apr-15 08:00N 65°36' E 022°12'0 0.0 330 / 191009.9 3.4 1.1
2014-Apr-15 07:00N 65°36' E 022°12'0 0.0 320 / 251009.1 2.7 1.0
2014-Apr-15 06:00N 65°36' E 022°12'0 0.0 330 / 121008.6 2.0 0.9
2014-Apr-15 05:00N 65°36' E 022°12'0 0.0 320 / 121007.8 1.5 1.0
2014-Apr-15 04:00N 65°36' E 022°12'0 0.0 330 / 121006.4 1.6 1.0
2014-Apr-15 03:00N 65°36' E 022°12'0 0.0 340 / 121005.4 2.0 1.0
2014-Apr-15 02:00N 65°36' E 022°12'0 0.0 340 / 171004.2 2.1 1.0
2014-Apr-15 01:00N 65°36' E 022°12'0 0.0 350 / 141003.5 1.6 1.0
2014-Apr-14 23:00N 65°36' E 022°12'0 0.0 350 / 141000.9 3.9 1.0
2014-Apr-14 22:00N 65°36' E 022°12'0 0.0 360 / 8999.4 3.2 1.1
2014-Apr-14 21:00N 65°36' E 022°12'0 0.0 350 / 6998.4 4.1 1.1
2014-Apr-14 20:00N 65°36' E 022°12'0 0.0 300 / 2997.8 2.6 1.1
2014-Apr-14 19:00N 65°36' E 022°12'0 0.0 100 997.1 3.8 1.1
2014-Apr-14 18:00N 65°36' E 022°12'0 0.0 020 996.7 5.6 1.1
2014-Apr-14 17:00N 65°36' E 022°12'0 0.0 020 / 4995.9 6.8 1.1
2014-Apr-14 16:00N 65°36' E 022°12'0 0.0 320 / 4995.4 6.3 1.0
2014-Apr-14 15:00N 65°36' E 022°12'0 0.0 310 / 8994.9 7.2 1.1
2014-Apr-14 14:00N 65°36' E 022°12'0 0.0 360 / 12994.1 5.7 1.0
2014-Apr-14 13:00N 65°36' E 022°12'0 0.0 993.5 5.3 1.1
2014-Apr-14 11:00N 65°36' E 022°12'0 0.0 360 / 6992.1 4.1 1.0
2014-Apr-14 10:00N 65°36' E 022°12'0 0.0 010 / 8991.4 3.2 1.1
2014-Apr-14 08:00N 65°36' E 022°12'0 0.0 010 / 6989.7 1.4 1.1
2014-Apr-14 07:00N 65°36' E 022°12'0 0.0 350 / 6988.8 0.7 1.1
2014-Apr-14 06:00N 65°36' E 022°12'0 0.0 360 / 8987.8 0.4 1.1
2014-Apr-14 05:00N 65°36' E 022°12'0 0.0 360 / 8987.5 0.4 1.1
2014-Apr-14 04:00N 65°36' E 022°12'0 0.0 010 / 6986.7 0.3 1.1
2014-Apr-14 03:00N 65°36' E 022°12'0 0.0 010 / 2986.3 0.3 1.1
2014-Apr-14 02:00N 65°36' E 022°12'0 0.0 020 / 4986.0 0.2 1.1
2014-Apr-14 01:00N 65°36' E 022°12'0 0.0 010 / 2985.6 0.6 1.1
2014-Apr-14 00:00N 65°36' E 022°12'0 0.0 050 / 4985.6 0.9 1.1
2014-Apr-13 23:00N 65°36' E 022°12'0 0.0 160 / 6985.6 1.1 1.2
2014-Apr-13 22:00N 65°36' E 022°12'0 0.0 130 / 6985.7 1.4 1.1
2014-Apr-13 21:00N 65°36' E 022°12'0 0.0 130 / 4985.8 1.6 1.1
2014-Apr-13 19:00N 65°36' E 022°12'0 0.0 130 / 2986.1 1.6 1.1
2014-Apr-13 18:00N 65°36' E 022°12'0 0.0 180 / 8986.2 1.2 1.1
2014-Apr-13 17:00N 65°36' E 022°12'0 0.0 170 / 12986.1 1.1 1.1
2014-Apr-13 16:00N 65°36' E 022°12'0 0.0 190 / 16986.1 1.0 1.1
2014-Apr-13 15:00N 65°36' E 022°12'0 0.0 190 / 14986.3 1.6 1.1
2014-Apr-13 14:00N 65°36' E 022°12'0 0.0 190 / 10986.6 2.4 1.1
2014-Apr-13 13:00N 65°36' E 022°12'0 0.0 150 / 6987.0 2.2 1.1
2014-Apr-13 12:00N 65°36' E 022°12'0 0.0 180 / 6987.4 1.5 1.1
2014-Apr-13 11:00N 65°36' E 022°12'0 0.0 180 / 10987.3 1.4 1.1
2014-Apr-13 10:00N 65°36' E 022°12'0 0.0 170 / 8987.5 1.1 1.1
2014-Apr-13 09:00N 65°36' E 022°12'0 0.0 190 / 12987.6 2.5 1.2
2014-Apr-13 07:00N 65°36' E 022°12'0 0.0 190 / 10987.6 2.1 1.1
2014-Apr-13 06:00N 65°36' E 022°12'0 0.0 190 / 12987.4 1.6 1.1
2014-Apr-13 05:00N 65°36' E 022°12'0 0.0 190 / 4987.8 0.8 1.1
2014-Apr-13 04:00N 65°36' E 022°12'0 0.0 190 / 4987.5 0.7 1.1
2014-Apr-13 03:00N 65°36' E 022°12'0 0.0 190 / 8987.8 0.6 1.1
2014-Apr-13 02:00N 65°36' E 022°12'0 0.0 180 / 6988.2 1.1 1.1
2014-Apr-13 01:00N 65°36' E 022°12'0 0.0 210 / 10988.6 1.3 1.1
2014-Apr-12 23:00N 65°36' E 022°12'0 0.0 190 / 12989.7 1.3 1.1
2014-Apr-12 22:00N 65°36' E 022°12'0 0.0 190 / 12990.4 1.2 1.1
2014-Apr-12 21:00N 65°36' E 022°12'0 0.0 190 / 12991.2 1.3 1.1
2014-Apr-12 20:00N 65°36' E 022°12'0 0.0 200 / 17991.9 1.5 1.2
2014-Apr-12 19:00N 65°36' E 022°12'0 0.0 190 / 19992.8 1.8 1.2
2014-Apr-12 17:00N 65°36' E 022°12'0 0.0 190 / 21994.5 1.5 1.2
2014-Apr-12 16:00N 65°36' E 022°12'0 0.0 170 / 12995.5 2.3 1.1
2014-Apr-12 15:00N 65°36' E 022°12'0 0.0 180 / 21996.8 2.4 1.2
2014-Apr-12 14:00N 65°36' E 022°12'0 0.0 180 / 12998.0 1.8 1.2
2014-Apr-12 13:00N 65°36' E 022°12'0 0.0 180 / 14998.8 2.7 1.2
2014-Apr-12 12:00N 65°36' E 022°12'0 0.0 180 / 16999.5 2.8 1.2
2014-Apr-12 11:00N 65°36' E 022°12'0 0.0 180 / 171000.0 2.9 1.2
2014-Apr-12 10:00N 65°36' E 022°12'0 0.0 180 / 171000.9 3.0 1.2
2014-Apr-12 09:00N 65°36' E 022°12'0 0.0 180 / 161001.1 4.0 1.2
2014-Apr-12 08:00N 65°36' E 022°12'0 0.0 210 / 121001.3 5.7 1.2
2014-Apr-12 07:00N 65°36' E 022°12'0 0.0 230 / 81001.5 5.2 1.1
2014-Apr-12 06:00N 65°36' E 022°12'0 0.0 270 / 101001.8 3.9 1.1
2014-Apr-12 05:00N 65°36' E 022°12'0 0.0 250 / 61001.9 3.0 1.1
2014-Apr-12 04:00N 65°36' E 022°12'0 0.0 230 / 101001.6 2.0 1.1
2014-Apr-12 03:00N 65°36' E 022°12'0 0.0 250 / 81001.5 1.8 1.1
2014-Apr-12 02:00N 65°36' E 022°12'0 0.0 250 / 81001.6 2.6 1.0
2014-Apr-12 01:00N 65°36' E 022°12'0 0.0 250 / 101001.6 2.9 1.1
2014-Apr-12 00:00N 65°36' E 022°12'0 0.0 240 / 101001.3 3.8 1.1
2014-Apr-11 23:00N 65°36' E 022°12'0 0.0 230 / 101001.5 3.5 1.1
2014-Apr-11 20:00N 65°36' E 022°12'0 0.0 220 / 101001.3 6.1 1.2
2014-Apr-11 19:00N 65°36' E 022°12'0 0.0 220 / 121001.3 6.8 1.1
2014-Apr-11 18:00N 65°36' E 022°12'0 0.0 230 / 121001.1 7.7 1.2
2014-Apr-11 17:00N 65°36' E 022°12'0 0.0 220 / 161000.8 8.4 1.1
2014-Apr-11 16:00N 65°36' E 022°12'0 0.0 220 / 101000.9 8.5 1.1
2014-Apr-11 15:00N 65°36' E 022°12'0 0.0 190 / 121001.1 3.9 1.2
2014-Apr-11 13:00N 65°36' E 022°12'0 0.0 190 / 211001.1 3.7 1.1
2014-Apr-11 12:00N 65°36' E 022°12'0 0.0 190 / 251001.3 3.5 1.1
2014-Apr-11 11:00N 65°36' E 022°12'0 0.0 200 / 211001.7 3.4 1.0
2014-Apr-11 08:00N 65°36' E 022°12'0 0.0 180 / 191003.1 2.7 1.0
2014-Apr-11 07:00N 65°36' E 022°12'0 0.0 190 / 171003.5 2.5 1.0
2014-Apr-11 06:00N 65°36' E 022°12'0 0.0 190 / 161003.8 1.7 0.9
2014-Apr-11 05:00N 65°36' E 022°12'0 0.0 190 / 161003.8 1.2 1.0
2014-Apr-11 04:00N 65°36' E 022°12'0 0.0 190 / 121004.2 0.8 1.0
2014-Apr-11 03:00N 65°36' E 022°12'0 0.0 190 / 161004.3 0.9 1.0
2014-Apr-11 02:00N 65°36' E 022°12'0 0.0 190 / 161004.9 1.2 1.0
2014-Apr-11 01:00N 65°36' E 022°12'0 0.0 210 / 161005.4 1.2 1.0
2014-Apr-11 00:00N 65°36' E 022°12'0 0.0 200 / 171006.2 1.0 1.0
2014-Apr-10 23:00N 65°36' E 022°12'0 0.0 190 / 211007.1 0.8 1.0
2014-Apr-10 22:00N 65°36' E 022°12'0 0.0 190 / 191008.0 0.8 1.0
2014-Apr-10 21:00N 65°36' E 022°12'0 0.0 190 / 171009.1 0.1 1.0
2014-Apr-10 20:00N 65°36' E 022°12'0 0.0 190 / 171010.2 -0.0 1.0
2014-Apr-10 18:00N 65°36' E 022°12'0 0.0 190 / 231011.3 0.8 1.1
2014-Apr-10 17:00N 65°36' E 022°12'0 0.0 180 / 271011.8 0.9 1.0
2014-Apr-10 16:00N 65°36' E 022°12'0 0.0 180 / 311012.9 1.2 1.0
2014-Apr-10 15:00N 65°36' E 022°12'0 0.0 190 / 311014.0 1.0 1.0
2014-Apr-10 14:00N 65°36' E 022°12'0 0.0 180 / 351014.8 0.9 1.0
2014-Apr-10 13:00N 65°36' E 022°12'0 0.0 190 / 271015.7 0.9 1.0
2014-Apr-10 12:00N 65°36' E 022°12'0 0.0 190 / 311016.8 0.7 1.1
2014-Apr-10 11:00N 65°36' E 022°12'0 0.0 170 / 291017.4 0.9 1.0
2014-Apr-10 09:00N 65°36' E 022°12'0 0.0 180 / 211018.8 0.6 1.0
2014-Apr-10 08:00N 65°36' E 022°12'0 0.0 190 / 191019.1 1.1 1.0
2014-Apr-10 07:00N 65°36' E 022°12'0 0.0 180 / 161019.5 0.4 1.0
2014-Apr-10 06:00N 65°36' E 022°12'0 0.0 190 / 171019.9 -0.1 1.0
2014-Apr-10 05:00N 65°36' E 022°12'0 0.0 180 / 121020.2 -1.4 1.0
2014-Apr-10 04:00N 65°36' E 022°12'0 0.0 180 / 61020.7 -4.2 1.0
2014-Apr-10 03:00N 65°36' E 022°12'0 0.0 180 / 101021.0 -3.7 1.0
2014-Apr-10 02:00N 65°36' E 022°12'0 0.0 200 / 61021.7 -4.8 1.0
2014-Apr-10 01:00N 65°36' E 022°12'0 0.0 200 / 61021.8 -4.5 1.0
2014-Apr-10 00:00N 65°36' E 022°12'0 0.0 160 / 21022.1 -4.2 1.0
2014-Apr-09 23:00N 65°36' E 022°12'0 0.0 180 / 21022.4 -3.6 1.1
2014-Apr-09 22:00N 65°36' E 022°12'   160 / 41022.8 -4.0 1.1

Dump ship's entire track history

sailing weather and tide predictions

Frej — SBPT — position and weather